Terminal Aerodrome Forecast
Issued by NWS Cleveland, OH

Home | Current Version | Previous Version | Text Only | Print | Product List | Glossary On
Versions: 1 2 3 4 5 6 7 8 9 10 11 12 13 14 15 16 17 18
000
FTUS41 KCLE 050700 AAA
TAFCAK
TAF AMD
KCAK 050712Z 0507/0606 18003KT 1SM BR SCT004 BKN120
      TEMPO 0508/0512 1/2SM FG BKN003
     FM051300 15005KT 4SM BR SCT004 BKN060 OVC100
     FM051500 20006KT P6SM SCT035 OVC100
     FM052300 VRB04KT P6SM VCSH BKN035 OVC100=

USA.gov is the U.S. government's official web portal to all federal, state and local government web resources and services.